Time;durP1;ratioP1;P1;durP2;ratioP2;P2;SDS_P1;SDS_P2;PMS_P1;PMS_P2;Temp;Humidity;BMP_temperature;BMP_pressure;BME280_temperature;BME280_humidity;BME280_pressure;Samples;Min_cycle;Max_cycle;Signal;HPM_P1;HPM_P2
2023/02/26 00:01:00;;;;;;;4.40;2.20;;;3.20;56.30;;;;;;5065981;28;20168;-86
2023/02/26 00:03:25;;;;;;;4.80;2.30;;;3.20;55.20;;;;;;5064785;28;20607;-87
2023/02/26 00:05:51;;;;;;;2.30;2.10;;;3.30;56.30;;;;;;5059730;28;20546;-84
2023/02/26 00:08:16;;;;;;;3.97;2.20;;;3.40;57.00;;;;;;5062118;28;20247;-85
2023/02/26 00:10:42;;;;;;;2.27;2.17;;;3.40;57.70;;;;;;5061097;28;20184;-85
2023/02/26 00:13:10;;;;;;;2.53;2.27;;;3.50;56.80;;;;;;5059814;28;20191;-85
2023/02/26 00:15:36;;;;;;;2.70;2.50;;;3.50;55.60;;;;;;5058761;28;20744;-86
2023/02/26 00:18:06;;;;;;;2.80;2.47;;;3.50;56.40;;;;;;5042333;28;20212;-85
2023/02/26 00:20:32;;;;;;;3.00;2.30;;;3.50;57.80;;;;;;5076058;28;20275;-86
2023/02/26 00:22:59;;;;;;;2.63;2.40;;;3.30;53.40;;;;;;5059321;28;20184;-88
2023/02/26 00:25:24;;;;;;;2.80;2.60;;;3.30;57.20;;;;;;5059624;28;20169;-86
2023/02/26 00:27:50;;;;;;;3.03;2.50;;;3.10;54.60;;;;;;5060841;28;20264;-84
2023/02/26 00:30:16;;;;;;;2.80;2.53;;;3.10;55.50;;;;;;5061214;28;20199;-85
2023/02/26 00:32:43;;;;;;;4.00;2.60;;;3.00;56.50;;;;;;5061037;28;20196;-85
2023/02/26 00:35:13;;;;;;;3.43;2.30;;;3.00;56.40;;;;;;5059381;28;20276;-85
2023/02/26 00:37:54;;;;;;;3.73;2.77;;;2.80;55.40;;;;;;5058408;28;20211;-85
2023/02/26 00:40:35;;;;;;;3.67;2.43;;;2.80;56.50;;;;;;5059010;28;20168;-85
2023/02/26 00:43:06;;;;;;;5.73;2.40;;;2.70;56.20;;;;;;5060141;28;20504;-86
2023/02/26 00:45:34;;;;;;;3.10;2.80;;;2.50;58.70;;;;;;5059262;28;20173;-85
2023/02/26 00:48:28;;;;;;;3.00;2.37;;;2.50;57.60;;;;;;5060232;28;20620;-86
2023/02/26 00:51:14;;;;;;;3.43;2.43;;;2.60;58.90;;;;;;5053183;28;20207;-85
2023/02/26 00:53:56;;;;;;;3.20;2.23;;;2.60;57.30;;;;;;5052020;28;20181;-84
2023/02/26 00:56:21;;;;;;;4.07;2.43;;;2.60;58.40;;;;;;5050998;28;20234;-86
2023/02/26 00:58:47;;;;;;;3.80;2.47;;;2.60;57.40;;;;;;5058025;28;20204;-86
2023/02/26 01:01:12;;;;;;;3.67;2.43;;;2.60;57.80;;;;;;5061650;28;20286;-87
2023/02/26 01:03:38;;;;;;;3.13;2.50;;;2.60;57.50;;;;;;5061605;28;20291;-84
2023/02/26 01:06:08;;;;;;;2.90;2.30;;;2.50;57.30;;;;;;5060070;28;20204;-86
2023/02/26 01:08:43;;;;;;;2.90;2.20;;;2.40;57.80;;;;;;5059336;28;20250;-86
2023/02/26 01:11:09;;;;;;;2.50;2.30;;;2.40;58.20;;;;;;5058855;28;20234;-85
2023/02/26 01:13:35;;;;;;;2.60;2.33;;;2.50;58.90;;;;;;5058957;28;20650;-85
2023/02/26 01:16:13;;;;;;;2.63;2.43;;;2.60;61.00;;;;;;5062027;28;20187;-85
2023/02/26 01:18:47;;;;;;;5.80;2.77;;;2.70;59.90;;;;;;5039697;28;20200;-85
2023/02/26 01:21:18;;;;;;;3.90;2.77;;;2.80;61.10;;;;;;5057436;28;20184;-86
2023/02/26 01:23:49;;;;;;;3.00;2.47;;;2.80;59.80;;;;;;5047043;28;20200;-86
2023/02/26 01:26:19;;;;;;;3.07;2.30;;;2.80;61.40;;;;;;5047153;28;20177;-85
2023/02/26 01:28:45;;;;;;;2.57;2.37;;;2.90;61.50;;;;;;5043652;28;20224;-86
2023/02/26 01:31:22;;;;;;;3.33;2.63;;;2.80;59.80;;;;;;5059225;28;20184;-86
2023/02/26 01:33:52;;;;;;;5.30;2.93;;;2.80;58.80;;;;;;5050136;28;20195;-86
2023/02/26 01:36:26;;;;;;;3.33;2.80;;;2.80;58.50;;;;;;5060508;28;20226;-85
2023/02/26 01:39:23;;;;;;;4.80;2.90;;;2.60;56.60;;;;;;5045619;28;20302;-85
2023/02/26 01:42:17;;;;;;;4.40;2.87;;;2.50;58.20;;;;;;5062941;28;20194;-84
2023/02/26 01:44:51;;;;;;;4.47;2.40;;;2.40;60.90;;;;;;5052438;28;20600;-85
2023/02/26 01:47:27;;;;;;;2.90;2.57;;;2.60;61.90;;;;;;5058113;28;20176;-85
2023/02/26 01:49:54;;;;;;;3.40;2.67;;;2.70;61.90;;;;;;5059030;28;20188;-86
2023/02/26 01:52:47;;;;;;;3.50;2.70;;;2.70;61.60;;;;;;5057568;28;20191;-86
2023/02/26 01:55:20;;;;;;;4.73;2.67;;;2.70;60.00;;;;;;5058058;28;20160;-83
2023/02/26 01:57:46;;;;;;;4.70;2.53;;;2.50;58.60;;;;;;5057077;28;20204;-85
2023/02/26 02:00:13;;;;;;;2.63;2.30;;;2.50;61.00;;;;;;5057737;28;20187;-85
2023/02/26 02:02:39;;;;;;;4.73;2.80;;;2.60;62.00;;;;;;5056676;28;20184;-86
2023/02/26 02:05:13;;;;;;;3.53;2.30;;;2.60;58.90;;;;;;5056250;28;20230;-85
2023/02/26 02:07:39;;;;;;;4.73;2.73;;;2.70;61.70;;;;;;5051400;28;20259;-84
2023/02/26 02:10:06;;;;;;;3.37;2.50;;;2.70;60.40;;;;;;5041220;28;20464;-86
2023/02/26 02:12:36;;;;;;;4.13;2.87;;;2.60;61.00;;;;;;5059625;28;20214;-85
2023/02/26 02:18:03;;;;;;;3.47;2.67;;;2.50;59.60;;;;;;5081976;23;20239;-86
2023/02/26 02:20:48;;;;;;;4.33;2.77;;;2.40;61.10;;;;;;5072072;28;20168;-84
2023/02/26 02:23:14;;;;;;;3.37;2.83;;;2.30;62.50;;;;;;5077679;28;20237;-85
2023/02/26 02:25:43;;;;;;;4.67;2.60;;;2.40;62.20;;;;;;5089950;28;20206;-84
2023/02/26 02:28:20;;;;;;;3.03;2.73;;;2.60;63.00;;;;;;5100937;28;20171;-85
2023/02/26 02:31:01;;;;;;;3.20;2.50;;;2.60;63.00;;;;;;5079310;28;20541;-85
2023/02/26 02:33:33;;;;;;;4.67;3.00;;;2.70;62.90;;;;;;5079380;28;20179;-87
2023/02/26 02:36:05;;;;;;;3.60;2.50;;;2.80;61.30;;;;;;5074055;28;20685;-84
2023/02/26 02:38:37;;;;;;;3.90;2.57;;;2.80;61.30;;;;;;5081363;28;20193;-85
2023/02/26 02:41:15;;;;;;;3.90;2.60;;;2.70;59.10;;;;;;5095571;28;20201;-85
2023/02/26 02:43:42;;;;;;;4.53;2.60;;;2.60;61.30;;;;;;5082706;28;20202;-85
2023/02/26 02:46:22;;;;;;;3.70;2.53;;;2.60;63.00;;;;;;5100760;28;20199;-84
2023/02/26 02:49:20;;;;;;;2.60;2.40;;;2.70;63.10;;;;;;5101540;28;20176;-83
2023/02/26 02:52:15;;;;;;;2.37;2.17;;;2.70;62.50;;;;;;5059460;28;20191;-84
2023/02/26 02:54:46;;;;;;;4.63;2.57;;;2.70;62.80;;;;;;5056225;28;20187;-85
2023/02/26 02:58:06;;;;;;;3.60;2.90;;;2.70;62.50;;;;;;5067854;28;20218;-85
2023/02/26 03:00:36;;;;;;;3.27;2.60;;;2.80;62.20;;;;;;5023865;28;20223;-83
2023/02/26 03:03:09;;;;;;;3.47;2.47;;;2.80;62.80;;;;;;5078432;28;20260;-86
2023/02/26 03:05:35;;;;;;;4.93;2.90;;;2.80;62.70;;;;;;5078308;28;20224;-84
2023/02/26 03:08:12;;;;;;;3.03;2.60;;;2.80;63.10;;;;;;5076481;28;20188;-84
2023/02/26 03:10:38;;;;;;;3.60;2.83;;;2.90;63.40;;;;;;5076893;28;20176;-85
2023/02/26 03:13:04;;;;;;;3.20;2.63;;;2.80;62.40;;;;;;5079593;28;20187;-83
2023/02/26 03:15:40;;;;;;;3.63;2.70;;;2.70;59.80;;;;;;5081331;28;20176;-84
2023/02/26 03:18:20;;;;;;;3.13;2.53;;;2.50;64.20;;;;;;5078613;28;20185;-84
2023/02/26 03:20:57;;;;;;;2.83;2.50;;;2.50;63.00;;;;;;5057733;28;20183;-85
2023/02/26 03:23:38;;;;;;;3.13;2.87;;;2.60;63.50;;;;;;5065562;28;20564;-85
2023/02/26 03:26:17;;;;;;;3.00;2.70;;;2.60;62.50;;;;;;5080448;28;20225;-87
2023/02/26 03:28:46;;;;;;;3.00;2.67;;;2.60;61.70;;;;;;5081740;28;20156;-85
2023/02/26 03:31:22;;;;;;;2.47;2.27;;;2.50;62.50;;;;;;5093650;28;20196;-86
2023/02/26 03:34:17;;;;;;;3.00;2.70;;;2.60;63.00;;;;;;5079667;28;20202;-85
2023/02/26 03:37:26;;;;;;;3.50;2.73;;;2.50;61.20;;;;;;5076410;28;20199;-84
2023/02/26 03:39:56;;;;;;;3.27;2.63;;;2.30;62.20;;;;;;5066164;28;20199;-84
2023/02/26 03:42:31;;;;;;;3.40;2.20;;;2.20;63.20;;;;;;5079541;28;20168;-83
2023/02/26 03:45:10;;;;;;;4.33;2.50;;;2.10;63.00;;;;;;5079384;28;20191;-85
2023/02/26 03:47:39;;;;;;;4.00;2.80;;;2.00;63.50;;;;;;5096367;28;20252;-84
2023/02/26 03:50:11;;;;;;;6.13;3.33;;;2.00;64.80;;;;;;5099806;28;20224;-84
2023/02/26 03:52:39;;;;;;;3.57;2.83;;;1.90;61.70;;;;;;5099774;28;20224;-83
2023/02/26 03:55:18;;;;;;;4.80;2.80;;;1.70;64.40;;;;;;5098553;28;20321;-86
2023/02/26 03:57:44;;;;;;;2.80;2.40;;;1.60;64.50;;;;;;5098399;28;20167;-86
2023/02/26 04:00:11;;;;;;;3.20;2.80;;;1.60;65.10;;;;;;5097183;28;20191;-84
2023/02/26 04:02:50;;;;;;;2.93;2.67;;;1.40;64.60;;;;;;5092567;28;20187;-84
2023/02/26 04:05:20;;;;;;;4.30;2.90;;;1.50;65.30;;;;;;5075366;28;20222;-83
2023/02/26 04:07:47;;;;;;;3.67;2.63;;;1.50;65.30;;;;;;5077200;28;20744;-85
2023/02/26 04:10:20;;;;;;;5.00;2.90;;;1.60;64.60;;;;;;5078489;28;20209;-85
2023/02/26 04:12:47;;;;;;;5.47;3.00;;;1.50;63.20;;;;;;5079781;28;20191;-86
2023/02/26 04:15:13;;;;;;;3.40;2.90;;;1.50;66.10;;;;;;5078793;28;20229;-85
2023/02/26 04:17:38;;;;;;;3.27;2.63;;;1.50;65.80;;;;;;5080057;28;20230;-84
2023/02/26 04:20:11;;;;;;;3.87;3.17;;;1.60;67.50;;;;;;5080491;28;20196;-84
2023/02/26 04:22:37;;;;;;;3.63;3.20;;;1.60;65.50;;;;;;5078439;28;20172;-85
2023/02/26 04:25:03;;;;;;;5.30;3.17;;;1.60;65.90;;;;;;5078237;28;20544;-84
2023/02/26 04:27:29;;;;;;;3.40;2.77;;;1.60;66.20;;;;;;5078493;28;20205;-84
2023/02/26 04:29:54;;;;;;;4.23;3.00;;;1.50;66.40;;;;;;5079131;28;20616;-85
2023/02/26 04:32:20;;;;;;;3.90;3.33;;;1.60;67.70;;;;;;5077887;28;20464;-86
2023/02/26 04:34:46;;;;;;;3.73;2.97;;;1.70;67.20;;;;;;5078656;28;20175;-84
2023/02/26 04:37:11;;;;;;;3.77;3.13;;;1.90;66.70;;;;;;5086916;28;20206;-84
2023/02/26 04:39:37;;;;;;;3.80;3.30;;;2.00;66.00;;;;;;5099271;28;20179;-85
2023/02/26 04:42:03;;;;;;;5.03;3.53;;;2.00;66.10;;;;;;5100080;28;20275;-83
2023/02/26 04:44:29;;;;;;;4.37;3.40;;;2.10;66.30;;;;;;5099424;28;20214;-84
2023/02/26 04:46:55;;;;;;;5.13;3.77;;;2.10;65.50;;;;;;5099288;28;20203;-85
2023/02/26 04:49:21;;;;;;;3.20;2.90;;;2.00;62.00;;;;;;5099840;28;20244;-86
2023/02/26 04:51:46;;;;;;;3.67;3.30;;;1.80;65.60;;;;;;5080997;28;20206;-84
2023/02/26 04:54:12;;;;;;;3.50;3.20;;;1.80;66.20;;;;;;5087361;28;20183;-84
2023/02/26 04:56:38;;;;;;;4.17;3.40;;;1.80;66.10;;;;;;5077021;28;20196;-86
2023/02/26 04:59:03;;;;;;;4.47;3.63;;;1.90;67.10;;;;;;5073664;28;20235;-85
2023/02/26 05:01:29;;;;;;;5.23;3.80;;;1.90;66.50;;;;;;5076752;28;20688;-84
2023/02/26 05:03:55;;;;;;;4.50;3.80;;;2.00;66.20;;;;;;5078617;28;20226;-85
2023/02/26 05:06:20;;;;;;;5.73;3.83;;;2.00;65.90;;;;;;5078377;28;20192;-84
2023/02/26 05:08:46;;;;;;;4.67;3.53;;;2.00;65.80;;;;;;5078074;28;20176;-84
2023/02/26 05:11:12;;;;;;;5.30;3.50;;;2.00;66.30;;;;;;5093138;28;20171;-84
2023/02/26 05:13:38;;;;;;;7.00;4.07;;;2.00;66.00;;;;;;5098127;28;20221;-84
2023/02/26 05:16:04;;;;;;;5.07;3.60;;;2.00;66.10;;;;;;5097960;28;20226;-84
2023/02/26 05:18:31;;;;;;;3.60;3.13;;;2.00;65.90;;;;;;5099310;28;20175;-84
2023/02/26 05:20:57;;;;;;;3.43;3.13;;;2.10;66.10;;;;;;5092218;28;20194;-84
2023/02/26 05:23:23;;;;;;;3.40;3.10;;;2.10;64.80;;;;;;5077471;28;20272;-83
2023/02/26 05:25:48;;;;;;;4.63;2.93;;;1.90;64.70;;;;;;5077470;28;20192;-84
2023/02/26 05:28:14;;;;;;;4.50;3.13;;;1.80;64.90;;;;;;5081360;28;20897;-84
2023/02/26 05:30:40;;;;;;;3.77;3.43;;;1.70;66.10;;;;;;5098305;28;20182;-83
2023/02/26 05:33:06;;;;;;;4.50;3.10;;;1.80;67.20;;;;;;5097820;28;20194;-84
2023/02/26 05:35:31;;;;;;;3.33;3.00;;;1.80;67.30;;;;;;5098467;28;20178;-83
2023/02/26 05:37:58;;;;;;;4.63;2.97;;;1.80;67.10;;;;;;5079818;28;20721;-84
2023/02/26 05:40:24;;;;;;;5.20;3.60;;;1.80;66.70;;;;;;5079381;28;20170;-84
2023/02/26 05:42:50;;;;;;;7.03;3.30;;;1.70;67.30;;;;;;5080084;28;20240;-84
2023/02/26 05:45:17;;;;;;;3.90;3.50;;;1.60;66.30;;;;;;5093622;28;20202;-85
2023/02/26 05:47:42;;;;;;;6.40;3.43;;;1.40;65.40;;;;;;5078607;28;20185;-84
2023/02/26 05:50:09;;;;;;;5.07;3.20;;;1.40;68.50;;;;;;5076561;28;20239;-84
2023/02/26 05:52:34;;;;;;;4.67;3.40;;;1.40;68.60;;;;;;5077950;28;20168;-85
2023/02/26 05:55:00;;;;;;;3.40;2.90;;;1.50;68.20;;;;;;5076265;28;20321;-85
2023/02/26 05:57:26;;;;;;;3.63;3.33;;;1.50;67.50;;;;;;5059458;28;20332;-84
2023/02/26 05:59:51;;;;;;;4.50;2.77;;;1.60;68.20;;;;;;5084003;28;20179;-85
2023/02/26 06:02:17;;;;;;;3.93;3.10;;;1.60;67.70;;;;;;5101693;28;20384;-85
2023/02/26 06:04:43;;;;;;;5.27;2.80;;;1.70;68.10;;;;;;5102375;28;20688;-84
2023/02/26 06:07:08;;;;;;;3.10;2.80;;;1.70;67.70;;;;;;5105377;28;20191;-83
2023/02/26 06:09:34;;;;;;;4.07;2.93;;;1.70;67.30;;;;;;5103593;28;20254;-85
2023/02/26 06:11:59;;;;;;;4.03;3.43;;;1.80;67.60;;;;;;5103999;28;20179;-85
2023/02/26 06:14:25;;;;;;;3.40;3.10;;;1.80;67.80;;;;;;5101790;28;20238;-84
2023/02/26 06:16:51;;;;;;;3.70;3.00;;;1.80;67.40;;;;;;5100093;28;20339;-83
2023/02/26 06:19:16;;;;;;;3.53;3.20;;;1.90;67.30;;;;;;5102186;28;20190;-86
2023/02/26 06:21:42;;;;;;;4.00;3.03;;;1.80;66.30;;;;;;5088764;28;20195;-84
2023/02/26 06:24:08;;;;;;;5.23;3.23;;;1.70;66.30;;;;;;5084839;28;20676;-84
2023/02/26 06:26:33;;;;;;;5.90;3.37;;;1.60;66.40;;;;;;5101241;28;20308;-85
2023/02/26 06:28:59;;;;;;;5.40;3.80;;;1.40;67.20;;;;;;5099321;28;20199;-84
2023/02/26 06:31:25;;;;;;;4.70;3.90;;;1.40;69.10;;;;;;5081780;28;20254;-83
2023/02/26 06:33:50;;;;;;;5.27;3.33;;;1.40;68.90;;;;;;5082101;28;20187;-84
2023/02/26 06:36:16;;;;;;;4.10;3.70;;;1.50;69.30;;;;;;5080323;28;20210;-85
2023/02/26 06:38:44;;;;;;;7.83;3.57;;;1.60;68.60;;;;;;5097963;28;20244;-83
2023/02/26 06:41:10;;;;;;;4.90;3.47;;;1.60;68.50;;;;;;5101801;28;20711;-84
2023/02/26 06:43:36;;;;;;;6.10;3.50;;;1.60;67.80;;;;;;5103204;28;20222;-84
2023/02/26 06:46:01;;;;;;;8.90;4.10;;;1.70;68.40;;;;;;5100955;28;20198;-83
2023/02/26 06:48:27;;;;;;;5.50;3.93;;;1.70;68.20;;;;;;5086925;28;20183;-85
2023/02/26 06:50:53;;;;;;;3.37;3.07;;;1.60;66.70;;;;;;5080164;28;20176;-84
2023/02/26 06:53:18;;;;;;;5.27;3.27;;;1.50;67.30;;;;;;5080082;28;20168;-85
2023/02/26 06:55:45;;;;;;;4.83;3.83;;;1.60;68.60;;;;;;5079087;28;20209;-84
2023/02/26 06:58:12;;;;;;;3.63;3.27;;;1.60;67.60;;;;;;5080116;28;20179;-85
2023/02/26 07:00:39;;;;;;;4.87;3.30;;;1.60;67.40;;;;;;5081336;28;20176;-85
2023/02/26 07:03:04;;;;;;;6.13;3.70;;;1.50;68.00;;;;;;5080295;28;20187;-86
2023/02/26 07:05:30;;;;;;;4.40;3.00;;;1.30;67.20;;;;;;5081863;28;20188;-84
2023/02/26 07:07:56;;;;;;;3.90;3.30;;;1.20;68.90;;;;;;5082045;28;20179;-82
2023/02/26 07:10:23;;;;;;;5.77;3.10;;;1.20;70.60;;;;;;5080024;28;20176;-85
2023/02/26 07:12:49;;;;;;;5.10;3.10;;;1.10;70.30;;;;;;5081015;28;20176;-84
2023/02/26 07:15:15;;;;;;;4.53;3.60;;;1.20;69.90;;;;;;5079152;28;20188;-84
2023/02/26 07:17:43;;;;;;;5.10;3.57;;;1.00;69.60;;;;;;5080729;28;20215;-84
2023/02/26 07:20:11;;;;;;;6.17;3.57;;;0.90;70.20;;;;;;5080230;28;20206;-84
2023/02/26 07:22:37;;;;;;;5.00;3.47;;;0.80;71.90;;;;;;5086327;28;20712;-85
2023/02/26 07:25:04;;;;;;;5.43;3.33;;;1.00;72.10;;;;;;5080655;28;20226;-82
2023/02/26 07:27:31;;;;;;;4.00;3.60;;;0.90;70.90;;;;;;5100456;28;20223;-83
2023/02/26 07:29:56;;;;;;;4.60;3.70;;;1.00;71.60;;;;;;5102715;28;20179;-83
2023/02/26 07:32:22;;;;;;;6.17;3.77;;;1.10;70.80;;;;;;5085556;28;20245;-84
2023/02/26 07:34:48;;;;;;;4.10;3.40;;;1.10;70.50;;;;;;5103525;28;20183;-83
2023/02/26 07:37:13;;;;;;;4.37;3.43;;;1.00;71.10;;;;;;5076763;28;20251;-83
2023/02/26 07:39:39;;;;;;;4.00;2.97;;;1.00;71.90;;;;;;5095042;28;20187;-83
2023/02/26 07:42:05;;;;;;;4.23;3.27;;;0.90;71.70;;;;;;5101529;28;20180;-84
2023/02/26 07:44:30;;;;;;;6.13;3.37;;;0.90;71.90;;;;;;5099069;28;20298;-85
2023/02/26 07:46:56;;;;;;;6.57;3.67;;;0.80;72.40;;;;;;5079659;28;20277;-84
2023/02/26 07:49:21;;;;;;;3.90;3.10;;;0.60;73.30;;;;;;5077164;28;20214;-84
2023/02/26 07:51:47;;;;;;;4.77;3.50;;;0.60;73.70;;;;;;5078312;28;20176;-84
2023/02/26 07:54:14;;;;;;;3.40;3.03;;;0.70;73.20;;;;;;5078791;28;20184;-84
2023/02/26 07:56:41;;;;;;;4.80;2.97;;;0.60;73.50;;;;;;5079520;28;20199;-83
2023/02/26 07:59:07;;;;;;;4.30;3.17;;;0.60;74.00;;;;;;5080437;28;20199;-85
2023/02/26 08:01:33;;;;;;;3.93;3.07;;;0.80;74.00;;;;;;5079638;28;20542;-84
2023/02/26 08:03:59;;;;;;;4.70;3.40;;;0.90;73.10;;;;;;5079373;28;20218;-84
2023/02/26 08:06:25;;;;;;;6.57;3.30;;;0.80;72.70;;;;;;5078960;28;20225;-86
2023/02/26 08:08:51;;;;;;;3.53;2.63;;;0.80;73.00;;;;;;5080495;28;20172;-84
2023/02/26 08:11:16;;;;;;;3.47;2.90;;;0.80;73.20;;;;;;5082689;28;20245;-85
2023/02/26 08:13:42;;;;;;;3.73;3.23;;;0.80;71.90;;;;;;5080324;28;20210;-84
2023/02/26 08:16:08;;;;;;;4.47;3.60;;;0.80;73.40;;;;;;5078236;28;20834;-84
2023/02/26 08:18:33;;;;;;;5.07;3.07;;;0.90;72.70;;;;;;5079322;28;20194;-85
2023/02/26 08:20:59;;;;;;;3.83;3.07;;;1.00;71.90;;;;;;5080129;28;20180;-84
2023/02/26 08:23:25;;;;;;;5.70;3.40;;;1.10;71.40;;;;;;5078070;28;20207;-84
2023/02/26 08:26:00;;;;;;;5.50;4.20;;;1.20;69.60;;;;;;5080246;28;20221;-85
2023/02/26 08:28:25;;;;;;;5.70;4.10;;;1.30;69.40;;;;;;5081633;28;20167;-85
2023/02/26 08:30:54;;;;;;;4.10;3.17;;;1.30;69.50;;;;;;5081935;28;20176;-84
2023/02/26 08:33:20;;;;;;;5.53;3.90;;;1.40;68.90;;;;;;5080537;28;20168;-83
2023/02/26 08:35:46;;;;;;;6.97;3.10;;;1.30;69.00;;;;;;5080530;28;20222;-85
2023/02/26 08:38:11;;;;;;;5.70;3.03;;;1.40;68.60;;;;;;5080991;28;20176;-85
2023/02/26 08:40:37;;;;;;;4.63;3.00;;;1.40;67.80;;;;;;5088446;23;20239;-86
2023/02/26 08:43:03;;;;;;;4.37;3.30;;;1.50;67.40;;;;;;5079205;28;20183;-87
2023/02/26 08:45:29;;;;;;;5.00;3.17;;;1.60;66.70;;;;;;5077831;28;20198;-88
2023/02/26 08:47:55;;;;;;;7.03;4.70;;;1.50;66.10;;;;;;5078125;28;20210;-87
2023/02/26 08:50:21;;;;;;;4.43;3.60;;;1.50;66.40;;;;;;5083242;28;20199;-86
2023/02/26 08:52:46;;;;;;;3.73;2.90;;;1.40;66.50;;;;;;5094396;28;20198;-87
2023/02/26 08:55:12;;;;;;;5.53;3.20;;;1.40;67.50;;;;;;5097903;28;20183;-86
2023/02/26 08:57:38;;;;;;;6.30;3.23;;;1.50;66.90;;;;;;5098315;28;20225;-85
2023/02/26 09:00:09;;;;;;;5.20;2.90;;;1.60;66.20;;;;;;5097452;28;20234;-85
2023/02/26 09:02:37;;;;;;;6.13;3.03;;;1.60;66.20;;;;;;5098580;28;20216;-86
2023/02/26 09:05:04;;;;;;;4.63;2.87;;;1.60;66.90;;;;;;5095072;28;20211;-86
2023/02/26 09:07:29;;;;;;;6.77;3.17;;;1.80;66.40;;;;;;5100071;28;20179;-86
2023/02/26 09:09:55;;;;;;;5.07;3.00;;;2.00;66.20;;;;;;5100583;28;20207;-86
2023/02/26 09:12:21;;;;;;;6.23;3.27;;;1.90;65.40;;;;;;5101058;28;20228;-86
2023/02/26 09:14:47;;;;;;;3.53;2.50;;;1.90;65.90;;;;;;5099740;28;20191;-86
2023/02/26 09:17:12;;;;;;;2.70;2.30;;;1.90;66.40;;;;;;5098849;28;20187;-87
2023/02/26 09:19:38;;;;;;;7.93;3.23;;;1.80;66.70;;;;;;5099605;28;20178;-86
2023/02/26 09:22:04;;;;;;;2.90;2.60;;;1.70;67.20;;;;;;5099045;28;20280;-85
2023/02/26 09:24:30;;;;;;;3.43;2.67;;;1.70;67.10;;;;;;5098033;28;20234;-86
2023/02/26 09:26:56;;;;;;;2.97;2.53;;;1.60;67.80;;;;;;5098860;28;20248;-86
2023/02/26 09:29:21;;;;;;;3.10;2.80;;;1.60;67.70;;;;;;5097566;28;20221;-86
2023/02/26 09:31:47;;;;;;;3.50;3.10;;;1.60;68.10;;;;;;5097503;28;20195;-85
2023/02/26 09:34:12;;;;;;;7.70;4.80;;;1.80;68.00;;;;;;5093693;28;20720;-87
2023/02/26 09:36:38;;;;;;;4.97;3.20;;;1.80;66.80;;;;;;5095687;28;20313;-86
2023/02/26 09:39:04;;;;;;;5.47;4.33;;;2.00;65.60;;;;;;5095043;28;20198;-87
2023/02/26 09:41:41;;;;;;;5.30;3.20;;;2.20;66.00;;;;;;5088469;28;20940;-86
2023/02/26 09:44:19;;;;;;;3.77;2.47;;;2.40;63.60;;;;;;5093505;28;20206;-87
2023/02/26 09:47:05;;;;;;;4.30;3.03;;;2.40;62.00;;;;;;5093004;28;20214;-86
2023/02/26 09:49:53;;;;;;;4.60;3.17;;;2.50;62.70;;;;;;5092871;28;20175;-87
2023/02/26 09:52:40;;;;;;;3.83;3.07;;;2.20;61.30;;;;;;5094601;28;20171;-86
2023/02/26 09:55:14;;;;;;;5.10;2.83;;;2.10;62.50;;;;;;5078672;28;20183;-86
2023/02/26 09:57:45;;;;;;;4.37;2.60;;;2.00;62.20;;;;;;5097764;28;20193;-88
2023/02/26 10:00:29;;;;;;;4.67;4.10;;;2.10;62.20;;;;;;5083585;28;20199;-86
2023/02/26 10:03:08;;;;;;;6.90;3.93;;;2.10;62.70;;;;;;5099845;28;20190;-87
2023/02/26 10:05:39;;;;;;;5.87;4.40;;;2.20;63.50;;;;;;5096078;28;20194;-85
2023/02/26 10:08:16;;;;;;;5.93;3.50;;;2.30;63.40;;;;;;5078166;28;20189;-86
2023/02/26 10:11:11;;;;;;;3.17;2.63;;;2.30;61.50;;;;;;5096037;28;20217;-86
2023/02/26 10:13:42;;;;;;;3.77;3.00;;;2.30;59.90;;;;;;5095400;28;20206;-86
2023/02/26 10:16:22;;;;;;;2.43;2.13;;;2.40;60.10;;;;;;5097897;28;20159;-87
2023/02/26 10:18:57;;;;;;;4.63;2.60;;;2.30;59.70;;;;;;5100122;28;20189;-87
2023/02/26 10:21:43;;;;;;;3.07;2.40;;;2.30;60.10;;;;;;5100763;28;20202;-86
2023/02/26 10:24:20;;;;;;;4.10;2.47;;;2.40;60.30;;;;;;5079965;28;20300;-85
2023/02/26 10:27:09;;;;;;;3.37;2.70;;;2.30;60.70;;;;;;5095340;28;20193;-85
2023/02/26 10:29:49;;;;;;;4.90;2.47;;;2.30;60.10;;;;;;5076980;28;20191;-85
2023/02/26 10:32:27;;;;;;;2.73;2.10;;;2.20;59.70;;;;;;5093260;28;20175;-87
2023/02/26 10:35:03;;;;;;;3.20;2.13;;;2.20;60.40;;;;;;5093554;28;20178;-86
2023/02/26 10:37:49;;;;;;;4.97;2.33;;;2.30;59.80;;;;;;5078078;28;20192;-87
2023/02/26 10:40:40;;;;;;;2.67;2.47;;;2.20;60.00;;;;;;5086879;28;20264;-86
2023/02/26 10:43:28;;;;;;;2.20;2.00;;;2.40;60.90;;;;;;5059539;28;20640;-84
2023/02/26 10:45:53;;;;;;;2.80;2.10;;;2.50;59.90;;;;;;5088857;28;20193;-86
2023/02/26 10:48:37;;;;;;;2.80;2.20;;;2.50;59.40;;;;;;5086187;28;20183;-87
2023/02/26 10:51:12;;;;;;;3.20;2.33;;;2.40;58.30;;;;;;5092073;28;20250;-88
2023/02/26 10:53:41;;;;;;;9.57;2.77;;;2.40;58.50;;;;;;5089473;28;20207;-86
2023/02/26 10:56:23;;;;;;;2.97;1.93;;;2.50;58.50;;;;;;5084913;28;20192;-86
2023/02/26 10:58:50;;;;;;;4.57;2.40;;;2.40;58.90;;;;;;5096475;28;20187;-86
2023/02/26 11:01:23;;;;;;;2.63;1.90;;;2.30;59.30;;;;;;5093671;28;20318;-87
2023/02/26 11:04:26;;;;;;;3.27;2.10;;;2.30;59.80;;;;;;5097289;28;20213;-86
2023/02/26 11:06:53;;;;;;;2.50;2.30;;;2.40;59.90;;;;;;5080221;28;20205;-86
2023/02/26 11:09:36;;;;;;;2.70;2.50;;;2.40;59.30;;;;;;5099224;28;20205;-86
2023/02/26 11:12:05;;;;;;;2.47;2.20;;;2.50;59.60;;;;;;5077974;28;20210;-87
2023/02/26 11:14:31;;;;;;;3.13;2.10;;;2.60;58.80;;;;;;5079592;28;21051;-86
2023/02/26 11:17:00;;;;;;;7.30;3.57;;;2.70;58.60;;;;;;5096324;28;20190;-86
2023/02/26 11:19:30;;;;;;;4.80;4.00;;;2.70;59.10;;;;;;5096954;28;20186;-87
2023/02/26 11:21:58;;;;;;;5.57;3.63;;;2.80;58.50;;;;;;5071831;28;20234;-85
2023/02/26 11:24:35;;;;;;;2.67;2.10;;;2.80;58.10;;;;;;5087022;28;20211;-85
2023/02/26 11:27:03;;;;;;;1.97;1.70;;;2.60;58.50;;;;;;5088130;28;20692;-87
2023/02/26 11:29:39;;;;;;;2.60;2.00;;;2.60;58.90;;;;;;5087301;28;20222;-86
2023/02/26 11:32:11;;;;;;;3.50;2.60;;;2.60;58.80;;;;;;5084037;28;20201;-86
2023/02/26 11:34:39;;;;;;;1.73;1.63;;;2.80;58.30;;;;;;5070857;28;20358;-84
2023/02/26 11:37:05;;;;;;;2.33;1.90;;;2.90;57.50;;;;;;5089076;28;20209;-85
2023/02/26 11:39:35;;;;;;;1.50;1.40;;;2.80;57.60;;;;;;5096093;28;20175;-87
2023/02/26 11:42:02;;;;;;;1.90;1.80;;;2.90;58.00;;;;;;5091807;28;20186;-86
2023/02/26 11:44:38;;;;;;;2.87;2.40;;;2.90;57.60;;;;;;5094151;28;20275;-86
2023/02/26 11:47:17;;;;;;;2.73;2.00;;;2.70;59.60;;;;;;5086601;28;20179;-87
2023/02/26 11:49:51;;;;;;;3.17;2.13;;;2.60;59.90;;;;;;5092846;28;20220;-85
2023/02/26 11:52:28;;;;;;;2.00;1.80;;;2.60;60.70;;;;;;5081971;28;20543;-89
2023/02/26 11:55:00;;;;;;;1.80;1.70;;;2.50;60.50;;;;;;5100221;28;20181;-86
2023/02/26 11:57:29;;;;;;;2.77;2.30;;;2.70;59.60;;;;;;5093195;28;20190;-86
2023/02/26 11:59:57;;;;;;;3.10;2.20;;;2.60;59.90;;;;;;5097417;28;20577;-85
2023/02/26 12:02:26;;;;;;;3.47;2.60;;;2.60;59.50;;;;;;5095270;28;20213;-85
2023/02/26 12:04:59;;;;;;;4.57;3.40;;;2.70;59.90;;;;;;5096471;28;20205;-88
2023/02/26 12:07:25;;;;;;;2.90;1.93;;;2.80;59.70;;;;;;5094545;28;20274;-85
2023/02/26 12:09:51;;;;;;;2.07;1.83;;;3.00;59.20;;;;;;5097244;28;20179;-85
2023/02/26 12:12:24;;;;;;;1.87;1.70;;;3.10;58.70;;;;;;5097137;28;20232;-86
2023/02/26 12:15:12;;;;;;;4.30;1.70;;;3.00;58.40;;;;;;5096582;28;20194;-87
2023/02/26 12:17:59;;;;;;;2.10;1.90;;;3.10;58.70;;;;;;5079225;28;20187;-87
2023/02/26 12:20:31;;;;;;;2.13;1.67;;;3.10;58.30;;;;;;5092929;28;20294;-85
2023/02/26 12:23:15;;;;;;;1.70;1.60;;;3.10;57.90;;;;;;5096126;28;20178;-87
2023/02/26 12:25:52;;;;;;;1.60;1.50;;;3.00;58.00;;;;;;5091850;28;20430;-86
2023/02/26 12:28:40;;;;;;;2.10;1.90;;;3.00;58.10;;;;;;5077782;28;20652;-85
2023/02/26 12:31:38;;;;;;;2.63;1.70;;;3.10;58.20;;;;;;5093127;28;20214;-86
2023/02/26 12:34:22;;;;;;;1.83;1.40;;;3.30;57.80;;;;;;5067163;28;20207;-88
2023/02/26 12:37:05;;;;;;;2.83;2.63;;;3.30;57.50;;;;;;5069751;28;20210;-86
2023/02/26 12:40:18;;;;;;;1.60;1.50;;;3.40;57.10;;;;;;5100037;28;20185;-87
2023/02/26 12:42:58;;;;;;;2.50;1.87;;;3.40;57.10;;;;;;5050728;28;20207;-86
2023/02/26 12:45:27;;;;;;;1.90;1.77;;;3.40;57.00;;;;;;5077045;28;20210;-86
2023/02/26 12:48:07;;;;;;;2.30;2.10;;;3.30;57.00;;;;;;5100625;28;20196;-87
2023/02/26 12:50:42;;;;;;;3.77;2.93;;;3.10;58.10;;;;;;5083304;28;20199;-85
2023/02/26 12:53:26;;;;;;;2.03;1.83;;;3.00;58.40;;;;;;5082502;28;20170;-85
2023/02/26 12:56:04;;;;;;;2.60;2.40;;;3.10;58.90;;;;;;5098041;28;20178;-86
2023/02/26 12:59:08;;;;;;;2.97;2.33;;;3.10;58.20;;;;;;5096630;28;20183;-86
2023/02/26 13:01:43;;;;;;;4.27;3.57;;;3.20;57.90;;;;;;5078417;28;20359;-86
2023/02/26 13:04:21;;;;;;;3.70;2.47;;;3.30;57.80;;;;;;5099757;28;20202;-86
2023/02/26 13:07:09;;;;;;;2.27;2.07;;;3.20;57.40;;;;;;5100330;28;20175;-86
2023/02/26 13:10:04;;;;;;;2.13;1.90;;;3.00;57.80;;;;;;5100326;28;20190;-86
2023/02/26 13:13:10;;;;;;;1.47;1.37;;;3.00;58.60;;;;;;5099432;28;20183;-86
2023/02/26 13:15:48;;;;;;;3.07;2.77;;;3.00;60.10;;;;;;5019140;28;20200;-86
2023/02/26 13:18:24;;;;;;;4.03;3.63;;;3.00;62.90;;;;;;5102246;28;20174;-87
2023/02/26 13:21:03;;;;;;;5.23;3.20;;;3.00;61.00;;;;;;5099809;28;20194;-87
2023/02/26 13:24:04;;;;;;;3.73;2.70;;;3.00;62.30;;;;;;5096114;28;20178;-87